createdAt,value
2022-09-01T00:00:08.348Z,100470.72
2022-09-01T00:02:36.049Z,100476.28
2022-09-01T00:05:07.590Z,100485.66
2022-09-01T00:07:36.810Z,100488.50
2022-09-01T00:10:07.946Z,100483.56
2022-09-01T00:15:07.477Z,100489.38
2022-09-01T00:17:36.370Z,100486.88
2022-09-01T00:20:05.077Z,100489.03
2022-09-01T00:22:33.916Z,100490.22
2022-09-01T00:25:02.203Z,100492.91
2022-09-01T00:27:30.829Z,100500.00
2022-09-01T00:32:27.821Z,100495.16
2022-09-01T00:34:55.522Z,100492.84
2022-09-01T00:37:23.248Z,100492.28
2022-09-01T00:39:51.643Z,100493.00
2022-09-01T00:42:19.352Z,100495.69
2022-09-01T00:44:47.485Z,100486.69
2022-09-01T00:47:15.560Z,100487.72
2022-09-01T00:49:49.882Z,100489.03
2022-09-01T00:52:23.353Z,100493.41
2022-09-01T00:54:58.310Z,100479.66
2022-09-01T00:57:26.909Z,100482.28
2022-09-01T01:00:23.579Z,100482.88
2022-09-01T01:02:58.227Z,100473.41
2022-09-01T01:05:33.176Z,100478.34
2022-09-01T01:08:03.581Z,100469.84
2022-09-01T01:10:35.987Z,100475.53
2022-09-01T01:13:15.472Z,100468.63
2022-09-01T01:15:44.398Z,100460.19
2022-09-01T01:18:23.241Z,100457.84
2022-09-01T01:21:34.456Z,100464.47
2022-09-01T01:24:23.614Z,100461.47
2022-09-01T01:26:52.892Z,100469.47
2022-09-01T01:29:22.066Z,100468.31
2022-09-01T01:31:53.611Z,100468.00
2022-09-01T01:34:22.848Z,100468.03
2022-09-01T01:36:51.804Z,100460.84
2022-09-01T01:39:25.740Z,100466.97
2022-09-01T01:41:55.145Z,100467.09
2022-09-01T01:44:28.356Z,100468.78
2022-09-01T01:47:00.587Z,100473.53
2022-09-01T01:49:29.238Z,100474.69
2022-09-01T01:51:58.116Z,100473.25
2022-09-01T01:54:32.616Z,100469.47
2022-09-01T01:57:04.548Z,100481.44
2022-09-01T01:59:34.034Z,100469.63
2022-09-01T02:02:08.778Z,100469.88
2022-09-01T02:04:36.653Z,100467.03
2022-09-01T02:07:13.719Z,100470.72
2022-09-01T02:09:46.138Z,100473.75
2022-09-01T02:12:19.656Z,100466.72
2022-09-01T02:14:48.695Z,100474.94
2022-09-01T02:17:17.407Z,100479.47
2022-09-01T02:19:47.493Z,100482.59
2022-09-01T02:22:15.239Z,100481.94
2022-09-01T02:24:49.223Z,100482.94
2022-09-01T02:27:20.423Z,100478.72
2022-09-01T02:29:51.470Z,100485.69
2022-09-01T02:32:22.077Z,100483.16
2022-09-01T02:34:53.799Z,100486.31
2022-09-01T02:37:25.595Z,100483.22
2022-09-01T02:39:53.963Z,100487.22
2022-09-01T02:42:27.684Z,100486.41
2022-09-01T02:44:58.571Z,100483.47
2022-09-01T02:47:29.750Z,100493.38
2022-09-01T02:50:03.691Z,100497.03
2022-09-01T02:52:35.658Z,100493.38
2022-09-01T02:55:03.975Z,100499.72
2022-09-01T02:57:34.552Z,100499.47
2022-09-01T03:00:20.827Z,100500.06
2022-09-01T03:02:54.188Z,100499.31
2022-09-01T03:05:27.140Z,100500.81
2022-09-01T03:07:58.081Z,100500.13
2022-09-01T03:10:35.579Z,100498.47
2022-09-01T03:13:15.320Z,100509.22
2022-09-01T03:15:44.608Z,100507.78
2022-09-01T03:18:14.245Z,100510.47
2022-09-01T03:20:46.612Z,100512.47
2022-09-01T03:23:19.303Z,100505.50
2022-09-01T03:25:48.999Z,100503.00
2022-09-01T03:28:17.349Z,100494.81
2022-09-01T03:30:49.201Z,100507.19
2022-09-01T03:33:19.963Z,100506.50
2022-09-01T03:35:48.408Z,100500.13
2022-09-01T03:38:24.662Z,100498.47
2022-09-01T03:41:02.289Z,100500.06
2022-09-01T03:43:35.642Z,100506.59
2022-09-01T03:46:05.336Z,100519.78
2022-09-01T03:48:33.503Z,100526.06
2022-09-01T03:51:03.122Z,100521.97
2022-09-01T03:53:37.718Z,100527.59
2022-09-01T03:56:07.431Z,100520.13
2022-09-01T03:58:35.678Z,100526.47
2022-09-01T04:01:05.006Z,100523.22
2022-09-01T04:03:39.833Z,100528.34
2022-09-01T04:06:10.018Z,100531.81
2022-09-01T04:08:39.524Z,100529.69
2022-09-01T04:11:27.415Z,100532.53
2022-09-01T04:13:55.699Z,100534.94
2022-09-01T04:16:48.071Z,100536.19
2022-09-01T04:19:26.594Z,100542.56
2022-09-01T04:22:00.494Z,100546.50
2022-09-01T04:24:36.834Z,100538.78
2022-09-01T04:27:07.440Z,100540.47
2022-09-01T04:29:36.062Z,100546.38
2022-09-01T04:32:13.145Z,100544.41
2022-09-01T04:34:51.080Z,100545.81
2022-09-01T04:37:21.876Z,100552.19
2022-09-01T04:39:59.332Z,100549.31
2022-09-01T04:42:32.714Z,100551.41
2022-09-01T04:45:10.556Z,100549.38
2022-09-01T04:47:45.542Z,100541.09
2022-09-01T04:50:17.838Z,100542.06
2022-09-01T04:53:06.882Z,100545.03
2022-09-01T04:55:49.738Z,100550.72
2022-09-01T04:58:22.167Z,100536.72
2022-09-01T05:00:52.513Z,100535.97
2022-09-01T05:03:24.351Z,100526.56
2022-09-01T05:06:17.855Z,100531.94
2022-09-01T05:08:59.517Z,100534.56
2022-09-01T05:11:45.659Z,100528.91
2022-09-01T05:14:26.302Z,100535.13
2022-09-01T05:16:59.153Z,100528.03
2022-09-01T05:19:31.155Z,100530.03
2022-09-01T05:22:01.066Z,100528.59
2022-09-01T05:24:32.194Z,100532.03
2022-09-01T05:27:05.356Z,100530.94
2022-09-01T05:29:38.124Z,100534.41
2022-09-01T05:32:10.273Z,100534.31
2022-09-01T05:34:43.903Z,100526.63
2022-09-01T05:37:14.662Z,100538.28
2022-09-01T05:39:42.540Z,100529.63
2022-09-01T05:42:10.581Z,100529.44
2022-09-01T05:44:44.466Z,100526.44
2022-09-01T05:47:20.944Z,100530.06
2022-09-01T05:49:53.825Z,100541.19
2022-09-01T05:52:25.698Z,100538.25
2022-09-01T05:54:55.662Z,100528.22
2022-09-01T05:57:34.376Z,100523.00
2022-09-01T06:00:12.438Z,100530.75
2022-09-01T06:02:44.396Z,100538.19
2022-09-01T06:05:19.064Z,100530.19
2022-09-01T06:07:47.657Z,100534.78
2022-09-01T06:10:17.329Z,100534.97
2022-09-01T06:12:47.821Z,100537.44
2022-09-01T06:15:21.132Z,100544.81
2022-09-01T06:17:52.719Z,100535.72
2022-09-01T06:20:20.543Z,100547.31
2022-09-01T06:22:48.220Z,100549.34
2022-09-01T06:27:48.499Z,100551.13
2022-09-01T06:30:23.887Z,100552.63
2022-09-01T06:33:19.508Z,100557.91
2022-09-01T06:35:49.506Z,100552.91
2022-09-01T06:38:20.145Z,100547.41
2022-09-01T06:40:51.177Z,100544.19
2022-09-01T06:43:23.330Z,100554.09
2022-09-01T06:45:55.079Z,100560.22
2022-09-01T06:48:27.230Z,100552.00
2022-09-01T06:51:19.982Z,100557.16
2022-09-01T06:53:56.751Z,100560.06
2022-09-01T06:56:32.287Z,100556.09
2022-09-01T06:59:06.242Z,100550.44
2022-09-01T07:01:39.201Z,100563.19
2022-09-01T07:10:21.090Z,100566.66
2022-09-01T07:13:06.883Z,100565.19
2022-09-01T07:18:37.359Z,100558.34
2022-09-01T07:21:36.214Z,100558.56
2022-09-01T07:24:13.457Z,100548.13
2022-09-01T07:27:07.706Z,100540.69
2022-09-01T07:29:36.916Z,100542.03
2022-09-01T07:34:55.177Z,100538.59
2022-09-01T07:42:55.814Z,100561.88
2022-09-01T07:43:45.153Z,100528.59
2022-09-01T07:46:40.347Z,100533.69
2022-09-01T07:52:02.186Z,100531.88
2022-09-01T07:54:30.630Z,100525.81
2022-09-01T07:56:59.082Z,100530.75
2022-09-01T07:59:29.562Z,100541.06
2022-09-01T08:02:05.867Z,100542.09
2022-09-01T08:04:34.749Z,100537.88
2022-09-01T08:07:04.286Z,100537.22
2022-09-01T08:09:37.609Z,100538.91
2022-09-01T08:12:08.760Z,100531.47
2022-09-01T08:14:46.826Z,100539.38
2022-09-01T08:17:17.493Z,100535.84
2022-09-01T08:20:09.787Z,100525.91
2022-09-01T08:23:04.477Z,100522.16
2022-09-01T08:25:37.129Z,100522.34
2022-09-01T08:28:06.017Z,100520.47
2022-09-01T08:30:35.719Z,100514.22
2022-09-01T08:33:11.437Z,100517.59
2022-09-01T08:35:46.070Z,100514.78
2022-09-01T08:38:14.162Z,100516.47
2022-09-01T08:40:51.490Z,100519.16
2022-09-01T08:43:25.953Z,100520.00
2022-09-01T08:46:05.409Z,100512.22
2022-09-01T08:52:52.997Z,100498.34
2022-09-01T08:55:35.634Z,100503.47
2022-09-01T08:58:05.828Z,100499.91
2022-09-01T09:00:59.637Z,100508.09
2022-09-01T09:03:43.246Z,100500.50
2022-09-01T09:06:17.621Z,100505.91
2022-09-01T09:08:57.158Z,100504.84
2022-09-01T09:11:34.183Z,100496.00
2022-09-01T09:14:32.586Z,100505.00
2022-09-01T09:17:01.545Z,100504.66
2022-09-01T09:19:34.098Z,100513.38
2022-09-01T09:22:06.365Z,100515.59
2022-09-01T09:24:50.394Z,100523.94
2022-09-01T09:27:43.122Z,100498.00
2022-09-01T09:30:21.301Z,100509.28
2022-09-01T09:33:31.002Z,100496.91
2022-09-01T09:35:48.828Z,100501.03
2022-09-01T09:38:22.675Z,100500.91
2022-09-01T09:41:20.621Z,100512.84
2022-09-01T09:44:04.423Z,100511.03
2022-09-01T09:46:32.629Z,100506.88
2022-09-01T09:49:34.270Z,100514.06
2022-09-01T09:52:10.788Z,100513.56
2022-09-01T09:54:41.202Z,100512.66
2022-09-01T09:57:09.721Z,100516.75
2022-09-01T10:00:01.420Z,100515.53
2022-09-01T10:02:39.051Z,100511.94
2022-09-01T10:05:26.048Z,100510.97
2022-09-01T10:07:57.442Z,100509.50
2022-09-01T10:10:31.952Z,100514.06
2022-09-01T10:13:01.992Z,100506.91
2022-09-01T10:15:34.052Z,100499.91
2022-09-01T10:18:40.656Z,100510.97
2022-09-01T10:21:24.168Z,100503.19
2022-09-01T10:23:53.018Z,100499.84
2022-09-01T10:26:28.321Z,100497.56
2022-09-01T10:29:08.407Z,100502.78
2022-09-01T10:31:41.478Z,100504.44
2022-09-01T10:34:19.375Z,100503.16
2022-09-01T10:36:54.999Z,100496.81
2022-09-01T10:39:27.581Z,100492.53
2022-09-01T10:42:07.548Z,100499.94
2022-09-01T10:44:56.259Z,100494.91
2022-09-01T10:47:33.547Z,100495.47
2022-09-01T10:50:09.737Z,100482.59
2022-09-01T10:52:40.800Z,100475.47
2022-09-01T10:55:25.398Z,100476.28
2022-09-01T11:01:48.845Z,100481.59
2022-09-01T11:04:18.752Z,100482.06
2022-09-01T11:07:38.852Z,100481.41
2022-09-01T11:10:36.086Z,100480.81
2022-09-01T11:13:07.036Z,100479.69
2022-09-01T11:15:45.027Z,100483.53
2022-09-01T11:18:27.904Z,100490.69
2022-09-01T11:21:25.719Z,100479.31
2022-09-01T11:24:32.098Z,100476.00
2022-09-01T11:26:59.771Z,100470.66
2022-09-01T11:30:12.630Z,100471.50
2022-09-01T11:32:46.833Z,100472.66
2022-09-01T11:35:19.383Z,100468.97
2022-09-01T11:37:52.232Z,100464.09
2022-09-01T11:40:33.252Z,100461.38
2022-09-01T11:43:10.625Z,100457.03
2022-09-01T11:45:58.366Z,100455.38
2022-09-01T11:48:27.049Z,100460.09
2022-09-01T11:51:01.193Z,100454.03
2022-09-01T11:53:29.651Z,100450.13
2022-09-01T11:56:30.694Z,100458.91
2022-09-01T11:58:58.702Z,100459.19
2022-09-01T12:01:37.913Z,100458.47
2022-09-01T12:04:27.676Z,100462.50
2022-09-01T12:07:00.005Z,100453.75
2022-09-01T12:09:36.717Z,100446.41
2022-09-01T12:12:06.796Z,100448.94
2022-09-01T12:14:54.897Z,100451.56
2022-09-01T12:17:23.028Z,100448.94
2022-09-01T12:19:51.069Z,100448.72
2022-09-01T12:22:21.517Z,100452.91
2022-09-01T12:24:54.226Z,100447.38
2022-09-01T12:27:25.158Z,100454.13
2022-09-01T12:29:53.097Z,100448.19
2022-09-01T12:32:21.394Z,100442.94
2022-09-01T12:35:10.827Z,100445.19
2022-09-01T12:37:39.437Z,100446.75
2022-09-01T12:40:41.604Z,100439.75
2022-09-01T12:43:09.280Z,100438.75
2022-09-01T12:45:47.633Z,100432.91
2022-09-01T12:48:44.726Z,100448.44
2022-09-01T12:51:29.283Z,100439.41
2022-09-01T12:54:04.750Z,100436.88
2022-09-01T12:56:36.365Z,100433.97
2022-09-01T12:59:26.274Z,100441.94
2022-09-01T13:02:46.191Z,100433.88
2022-09-01T13:05:27.125Z,100434.78
2022-09-01T13:08:01.035Z,100448.16
2022-09-01T13:10:34.497Z,100449.72
2022-09-01T13:13:02.293Z,100432.66
2022-09-01T13:15:31.243Z,100443.47
2022-09-01T13:17:58.945Z,100439.84
2022-09-01T13:20:26.886Z,100438.94
2022-09-01T13:22:54.937Z,100444.75
2022-09-01T13:25:24.414Z,100432.69
2022-09-01T13:27:55.016Z,100420.53
2022-09-01T13:30:27.246Z,100433.22
2022-09-01T13:35:42.789Z,100438.56
2022-09-01T13:38:10.876Z,100438.00
2022-09-01T13:40:38.925Z,100441.19
2022-09-01T13:43:06.939Z,100441.19
2022-09-01T13:45:35.235Z,100438.56
2022-09-01T13:48:19.064Z,100437.41
2022-09-01T13:53:37.586Z,100440.78
2022-09-01T13:56:05.440Z,100446.75
2022-09-01T13:58:33.836Z,100445.81
2022-09-01T14:01:02.101Z,100457.03
2022-09-01T14:03:32.287Z,100460.06
2022-09-01T14:06:00.468Z,100459.22
2022-09-01T14:08:28.204Z,100460.50
2022-09-01T14:10:55.898Z,100464.75
2022-09-01T14:13:24.805Z,100465.19
2022-09-01T14:15:53.729Z,100463.00
2022-09-01T14:18:22.327Z,100462.69
2022-09-01T14:20:51.944Z,100468.44
2022-09-01T14:23:20.612Z,100473.84
2022-09-01T14:25:51.335Z,100478.72
2022-09-01T14:28:21.117Z,100480.81
2022-09-01T14:33:18.403Z,100483.22
2022-09-01T14:35:48.364Z,100494.75
2022-09-01T14:38:16.292Z,100493.44
2022-09-01T14:40:47.259Z,100496.81
2022-09-01T14:43:15.432Z,100493.78
2022-09-01T14:45:48.358Z,100496.75
2022-09-01T14:48:18.055Z,100498.16
2022-09-01T14:50:51.066Z,100512.34
2022-09-01T14:53:19.490Z,100505.78
2022-09-01T14:55:47.930Z,100509.34
2022-09-01T14:58:17.195Z,100508.66
2022-09-01T15:00:45.273Z,100514.75
2022-09-01T15:03:13.351Z,100506.88
2022-09-01T15:05:41.503Z,100519.91
2022-09-01T15:08:16.968Z,100519.25
2022-09-01T15:10:45.455Z,100522.56
2022-09-01T15:13:16.615Z,100527.97
2022-09-01T15:15:44.828Z,100523.31
2022-09-01T15:18:15.372Z,100519.56
2022-09-01T15:20:46.489Z,100532.97
2022-09-01T15:23:20.802Z,100530.41
2022-09-01T15:25:50.848Z,100526.03
2022-09-01T15:28:18.654Z,100528.41
2022-09-01T15:30:47.014Z,100539.88
2022-09-01T15:33:16.068Z,100541.75
2022-09-01T15:35:45.439Z,100539.91
2022-09-01T15:38:17.450Z,100548.66
2022-09-01T15:40:58.033Z,100552.69
2022-09-01T15:43:28.391Z,100552.69
2022-09-01T15:45:58.590Z,100551.03
2022-09-01T15:48:28.664Z,100547.66
2022-09-01T15:51:26.922Z,100558.78
2022-09-01T15:53:57.610Z,100560.97
2022-09-01T15:56:26.335Z,100570.41
2022-09-01T15:59:02.670Z,100566.38
2022-09-01T16:01:34.129Z,100561.31
2022-09-01T16:04:05.172Z,100571.06
2022-09-01T16:06:34.542Z,100569.22
2022-09-01T16:09:02.382Z,100582.88
2022-09-01T16:11:30.398Z,100581.69
2022-09-01T16:13:58.763Z,100581.34
2022-09-01T16:16:40.896Z,100576.63
2022-09-01T16:19:37.357Z,100584.38
2022-09-01T16:22:31.758Z,100579.59
2022-09-01T16:25:02.358Z,100579.38
2022-09-01T16:27:36.577Z,100592.03
2022-09-01T16:30:11.337Z,100607.16
2022-09-01T16:32:44.935Z,100600.75
2022-09-01T16:35:13.912Z,100609.16
2022-09-01T16:37:52.252Z,100623.78
2022-09-01T16:40:47.289Z,100617.06
2022-09-01T16:43:18.277Z,100622.66
2022-09-01T16:46:10.984Z,100629.75
2022-09-01T16:49:14.690Z,100632.59
2022-09-01T16:52:00.286Z,100629.34
2022-09-01T16:54:39.406Z,100636.69
2022-09-01T16:57:25.161Z,100636.53
2022-09-01T16:59:55.751Z,100633.69
2022-09-01T17:02:33.135Z,100647.09
2022-09-01T17:05:08.741Z,100644.91
2022-09-01T17:07:50.269Z,100647.22
2022-09-01T17:10:37.236Z,100659.47
2022-09-01T17:13:28.341Z,100658.81
2022-09-01T17:16:05.988Z,100663.81
2022-09-01T17:19:04.936Z,100665.50
2022-09-01T17:21:46.107Z,100668.53
2022-09-01T17:24:28.536Z,100671.50
2022-09-01T17:27:02.587Z,100675.59
2022-09-01T17:29:41.076Z,100671.03
2022-09-01T17:32:23.844Z,100675.59
2022-09-01T17:34:57.760Z,100676.91
2022-09-01T17:37:53.135Z,100667.59
2022-09-01T17:40:46.108Z,100674.78
2022-09-01T17:43:32.480Z,100677.81
2022-09-01T17:46:15.920Z,100683.53
2022-09-01T17:49:09.929Z,100685.50
2022-09-01T17:51:48.247Z,100682.97
2022-09-01T17:54:15.815Z,100680.47
2022-09-01T17:56:52.065Z,100693.22
2022-09-01T17:59:38.100Z,100684.78
2022-09-01T18:02:46.678Z,100686.56
2022-09-01T18:05:19.999Z,100686.69
2022-09-01T18:08:26.940Z,100687.69
2022-09-01T18:11:06.195Z,100693.56
2022-09-01T18:13:53.244Z,100702.38
2022-09-01T18:16:36.766Z,100699.69
2022-09-01T18:19:14.109Z,100704.31
2022-09-01T18:21:52.196Z,100706.63
2022-09-01T18:24:34.552Z,100702.84
2022-09-01T18:27:02.237Z,100707.13
2022-09-01T18:29:31.746Z,100704.44
2022-09-01T18:32:24.938Z,100703.50
2022-09-01T18:35:04.768Z,100704.50
2022-09-01T18:37:49.936Z,100711.06
2022-09-01T18:40:59.385Z,100710.91
2022-09-01T18:43:40.815Z,100709.66
2022-09-01T18:46:29.725Z,100712.22
2022-09-01T18:49:12.042Z,100710.25
2022-09-01T18:51:52.492Z,100713.44
2022-09-01T18:54:32.334Z,100719.31
2022-09-01T18:57:06.140Z,100721.16
2022-09-01T19:00:17.756Z,100727.63
2022-09-01T19:02:52.518Z,100734.94
2022-09-01T19:05:38.491Z,100731.63
2022-09-01T19:08:29.123Z,100740.97
2022-09-01T19:11:05.576Z,100742.13
2022-09-01T19:13:40.828Z,100746.91
2022-09-01T19:16:18.463Z,100741.97
2022-09-01T19:18:54.462Z,100753.97
2022-09-01T19:21:25.409Z,100757.97
2022-09-01T19:24:02.348Z,100762.22
2022-09-01T19:26:40.501Z,100758.81
2022-09-01T19:29:16.522Z,100759.13
2022-09-01T19:31:47.892Z,100767.88
2022-09-01T19:34:25.785Z,100764.91
2022-09-01T19:37:00.058Z,100767.06
2022-09-01T19:39:39.952Z,100767.06
2022-09-01T19:42:32.681Z,100778.91
2022-09-01T19:45:33.157Z,100769.06
2022-09-01T19:48:19.645Z,100778.50
2022-09-01T19:50:51.047Z,100782.19
2022-09-01T19:53:50.723Z,100790.22
2022-09-01T19:56:33.265Z,100795.06
2022-09-01T19:59:11.624Z,100807.75
2022-09-01T20:01:59.913Z,100801.25
2022-09-01T20:04:41.301Z,100809.16
2022-09-01T20:07:19.442Z,100805.50
2022-09-01T20:09:57.014Z,100815.50
2022-09-01T20:12:45.168Z,100814.50
2022-09-01T20:15:15.707Z,100818.59
2022-09-01T20:17:50.335Z,100825.78
2022-09-01T20:20:29.423Z,100811.75
2022-09-01T20:23:35.997Z,100814.97
2022-09-01T20:26:12.281Z,100815.28
2022-09-01T20:29:14.294Z,100811.69
2022-09-01T20:31:46.273Z,100816.72
2022-09-01T20:34:47.137Z,100818.97
2022-09-01T20:37:42.550Z,100830.66
2022-09-01T20:40:13.117Z,100828.44
2022-09-01T20:43:02.422Z,100839.09
2022-09-01T20:45:32.087Z,100852.97
2022-09-01T20:48:03.162Z,100853.06
2022-09-01T20:50:43.595Z,100846.28
2022-09-01T20:53:23.444Z,100855.53
2022-09-01T20:56:13.319Z,100850.69
2022-09-01T20:58:45.387Z,100859.53
2022-09-01T21:01:17.462Z,100851.50
2022-09-01T21:04:16.393Z,100848.22
2022-09-01T21:07:04.667Z,100855.66
2022-09-01T21:09:42.833Z,100853.22
2022-09-01T21:12:23.267Z,100858.25
2022-09-01T21:15:08.952Z,100856.09
2022-09-01T21:18:07.601Z,100870.78
2022-09-01T21:20:54.411Z,100863.16
2022-09-01T21:23:22.769Z,100865.69
2022-09-01T21:25:50.601Z,100856.94
2022-09-01T21:28:21.537Z,100865.88
2022-09-01T21:30:54.146Z,100874.25
2022-09-01T21:33:22.987Z,100868.34
2022-09-01T21:35:51.221Z,100876.00
2022-09-01T21:38:19.188Z,100886.50
2022-09-01T21:40:48.147Z,100887.34
2022-09-01T21:43:21.239Z,100898.63
2022-09-01T21:45:50.026Z,100896.59
2022-09-01T21:48:18.040Z,100909.34
2022-09-01T21:50:47.688Z,100899.88
2022-09-01T21:53:15.435Z,100900.38
2022-09-01T21:55:45.431Z,100901.59
2022-09-01T21:58:13.169Z,100902.06
2022-09-01T22:00:43.466Z,100908.28
2022-09-01T22:03:12.253Z,100912.78
2022-09-01T22:05:42.929Z,100909.16
2022-09-01T22:08:13.398Z,100911.81
2022-09-01T22:10:43.618Z,100919.00
2022-09-01T22:13:13.874Z,100926.16
2022-09-01T22:15:44.973Z,100926.16
2022-09-01T22:18:14.225Z,100929.44
2022-09-01T22:20:42.508Z,100931.63
2022-09-01T22:23:13.841Z,100924.34
2022-09-01T22:25:44.431Z,100937.34
2022-09-01T22:28:13.397Z,100927.38
2022-09-01T22:30:46.841Z,100934.66
2022-09-01T22:33:15.949Z,100942.69
2022-09-01T22:35:48.097Z,100940.97
2022-09-01T22:38:16.791Z,100947.69
2022-09-01T22:40:47.582Z,100948.41
2022-09-01T22:43:18.401Z,100951.53
2022-09-01T22:45:48.165Z,100953.59
2022-09-01T22:48:18.466Z,100948.25
2022-09-01T22:50:47.688Z,100950.44
2022-09-01T22:53:17.874Z,100951.31
2022-09-01T22:55:48.305Z,100951.16
2022-09-01T22:58:17.160Z,100954.56
2022-09-01T23:00:50.651Z,100952.38
2022-09-01T23:03:19.720Z,100951.25
2022-09-01T23:05:48.058Z,100949.91
2022-09-01T23:08:17.527Z,100943.63
2022-09-01T23:10:45.447Z,100945.19
2022-09-01T23:13:13.084Z,100945.06
2022-09-01T23:15:43.207Z,100953.72
2022-09-01T23:18:10.761Z,100949.44
2022-09-01T23:20:38.739Z,100947.25
2022-09-01T23:23:06.420Z,100947.16
2022-09-01T23:25:34.448Z,100946.19
2022-09-01T23:28:02.408Z,100958.91
2022-09-01T23:30:30.179Z,100955.84
2022-09-01T23:32:58.119Z,100958.03
2022-09-01T23:35:26.898Z,100964.97
2022-09-01T23:37:55.184Z,100958.69
2022-09-01T23:40:22.938Z,100964.75
2022-09-01T23:42:50.609Z,100957.59
2022-09-01T23:45:19.006Z,100968.75
2022-09-01T23:47:47.310Z,100967.16
2022-09-01T23:50:14.976Z,100969.72
2022-09-01T23:52:42.597Z,100977.00
2022-09-01T23:55:10.299Z,100972.25
2022-09-01T23:57:38.221Z,100975.06
